< < Back
Terminal Aerodrome Forecast


Current Version              Previous Versions:   1  2  3  4  5  6  7  8  9  

Terminal Aerodrome Forecast

596
FTUS42 KCHS 041735
TAFCHS
TAF
KCHS 041735Z 0418/0518 14007KT P6SM SCT045
     FM050000 17003KT P6SM FEW040 SCT250
     FM050900 03005KT P6SM SCT035 BKN080=

Latest METAR

893
SAUS80 KWBC 050702
MTRCHS
METAR KCHS 050656Z 01008KT 10SM BKN015 24/23 A3001 RMK AO2 SLP162
T02390228


USA.gov is the U.S. government's official web portal to all federal, state and local government web resources and services.